createdAt,value
2017-07-09T00:02:23.749Z,20.10
2017-07-09T00:04:50.215Z,20.10
2017-07-09T00:07:16.706Z,20.10
2017-07-09T00:09:43.247Z,20.10
2017-07-09T00:12:09.774Z,20.10
2017-07-09T00:14:36.286Z,20.10
2017-07-09T00:17:03.517Z,20.10
2017-07-09T00:19:30.228Z,20.10
2017-07-09T00:21:56.686Z,20.10
2017-07-09T00:24:23.130Z,20.10
2017-07-09T00:26:50.380Z,20.00
2017-07-09T00:29:17.603Z,20.00
2017-07-09T00:31:44.070Z,20.00
2017-07-09T00:34:11.314Z,20.00
2017-07-09T00:36:38.558Z,20.00
2017-07-09T00:39:05.815Z,20.00
2017-07-09T00:41:33.050Z,20.00
2017-07-09T00:43:59.549Z,20.00
2017-07-09T00:46:26.084Z,20.10
2017-07-09T00:48:52.531Z,20.00
2017-07-09T00:51:19.037Z,20.10
2017-07-09T00:53:45.498Z,20.00
2017-07-09T00:56:12.008Z,20.00
2017-07-09T00:58:38.496Z,20.00
2017-07-09T01:01:04.972Z,20.00
2017-07-09T01:03:31.481Z,20.00
2017-07-09T01:05:57.950Z,20.00
2017-07-09T01:08:24.487Z,20.00
2017-07-09T01:10:50.933Z,20.00
2017-07-09T01:13:17.504Z,19.90
2017-07-09T01:15:43.993Z,20.00
2017-07-09T01:18:10.496Z,19.90
2017-07-09T01:20:36.961Z,20.00
2017-07-09T01:23:03.670Z,20.00
2017-07-09T01:25:30.135Z,20.00
2017-07-09T01:27:56.610Z,20.00
2017-07-09T01:30:23.140Z,20.00
2017-07-09T01:32:49.918Z,20.00
2017-07-09T01:35:16.413Z,20.00
2017-07-09T01:37:42.897Z,20.00
2017-07-09T01:40:09.399Z,20.00
2017-07-09T01:42:36.007Z,20.00
2017-07-09T01:45:02.579Z,20.00
2017-07-09T01:47:29.089Z,20.00
2017-07-09T01:49:55.658Z,20.00
2017-07-09T01:52:22.151Z,20.00
2017-07-09T01:54:48.714Z,20.00
2017-07-09T01:57:15.297Z,20.00
2017-07-09T01:59:42.500Z,20.00
2017-07-09T02:02:08.972Z,19.90
2017-07-09T02:04:36.191Z,19.90
2017-07-09T02:07:02.685Z,19.90
2017-07-09T02:09:29.168Z,19.90
2017-07-09T02:11:55.663Z,19.90
2017-07-09T02:14:22.184Z,19.90
2017-07-09T02:16:48.662Z,19.90
2017-07-09T02:19:15.186Z,19.90
2017-07-09T02:21:41.661Z,19.90
2017-07-09T02:24:08.894Z,19.90
2017-07-09T02:26:35.389Z,19.80
2017-07-09T02:29:01.903Z,19.80
2017-07-09T02:31:28.397Z,19.90
2017-07-09T02:33:55.663Z,19.90
2017-07-09T02:36:22.139Z,19.90
2017-07-09T02:38:48.605Z,19.90
2017-07-09T02:41:15.130Z,19.90
2017-07-09T02:43:41.613Z,19.90
2017-07-09T02:46:08.088Z,19.90
2017-07-09T02:48:34.554Z,19.90
2017-07-09T02:51:02.049Z,19.90
2017-07-09T02:53:28.531Z,19.90
2017-07-09T02:55:55.740Z,19.90
2017-07-09T02:58:22.298Z,19.80
2017-07-09T03:00:48.800Z,19.80
2017-07-09T03:03:15.291Z,19.80
2017-07-09T03:05:42.571Z,19.80
2017-07-09T03:08:09.077Z,19.80
2017-07-09T03:10:36.271Z,19.80
2017-07-09T03:13:02.749Z,19.80
2017-07-09T03:15:29.958Z,19.80
2017-07-09T03:17:56.456Z,19.70
2017-07-09T03:20:22.929Z,19.80
2017-07-09T03:22:49.431Z,19.80
2017-07-09T03:25:15.899Z,19.70
2017-07-09T03:27:42.560Z,19.80
2017-07-09T03:30:09.030Z,19.70
2017-07-09T03:32:35.496Z,19.70
2017-07-09T03:35:01.989Z,19.80
2017-07-09T03:37:28.510Z,19.70
2017-07-09T03:39:55.690Z,19.70
2017-07-09T03:42:22.189Z,19.70
2017-07-09T03:44:49.439Z,19.70
2017-07-09T03:47:16.634Z,19.70
2017-07-09T03:49:43.156Z,19.70
2017-07-09T03:52:09.643Z,19.70
2017-07-09T03:54:37.156Z,19.60
2017-07-09T03:57:03.643Z,19.60
2017-07-09T03:59:30.907Z,19.60
2017-07-09T04:01:57.431Z,19.60
2017-07-09T04:04:24.668Z,19.60
2017-07-09T04:06:52.170Z,19.70
2017-07-09T04:09:18.634Z,19.70
2017-07-09T04:11:45.081Z,19.70
2017-07-09T04:14:12.337Z,19.70
2017-07-09T04:16:39.614Z,19.70
2017-07-09T04:19:06.128Z,19.70
2017-07-09T04:21:33.342Z,19.70
2017-07-09T04:23:59.852Z,19.70
2017-07-09T04:26:26.326Z,19.70
2017-07-09T04:28:52.825Z,19.70
2017-07-09T04:31:19.319Z,19.70
2017-07-09T04:33:45.869Z,19.70
2017-07-09T04:36:12.329Z,19.70
2017-07-09T04:38:38.836Z,19.70
2017-07-09T04:41:05.337Z,19.70
2017-07-09T04:43:32.603Z,19.80
2017-07-09T04:45:59.081Z,19.70
2017-07-09T04:48:25.549Z,19.80
2017-07-09T04:50:52.794Z,19.80
2017-07-09T04:53:20.006Z,19.90
2017-07-09T04:55:46.502Z,19.90
2017-07-09T04:58:13.024Z,19.90
2017-07-09T05:00:39.547Z,20.00
2017-07-09T05:03:06.779Z,20.00
2017-07-09T05:05:33.403Z,20.00
2017-07-09T05:07:59.885Z,20.10
2017-07-09T05:10:26.364Z,20.10
2017-07-09T05:12:52.887Z,20.20
2017-07-09T05:15:19.394Z,20.30
2017-07-09T05:17:45.911Z,20.30
2017-07-09T05:20:12.407Z,20.40
2017-07-09T05:22:38.891Z,20.60
2017-07-09T05:25:05.376Z,20.80
2017-07-09T05:27:31.859Z,21.10
2017-07-09T05:29:58.364Z,21.30
2017-07-09T05:32:25.592Z,21.60
2017-07-09T05:34:52.094Z,21.60
2017-07-09T05:37:18.598Z,21.70
2017-07-09T05:39:45.166Z,21.90
2017-07-09T05:42:11.655Z,22.10
2017-07-09T05:44:38.877Z,22.30
2017-07-09T05:47:05.416Z,22.30
2017-07-09T05:49:31.954Z,22.30
2017-07-09T05:51:59.190Z,22.30
2017-07-09T05:54:25.672Z,22.30
2017-07-09T05:56:52.212Z,22.30
2017-07-09T05:59:18.705Z,22.20
2017-07-09T06:01:45.927Z,22.30
2017-07-09T06:04:12.451Z,22.30
2017-07-09T06:06:38.918Z,22.50
2017-07-09T06:09:06.174Z,22.70
2017-07-09T06:11:32.657Z,22.70
2017-07-09T06:13:59.150Z,22.80
2017-07-09T06:16:25.653Z,22.80
2017-07-09T06:18:52.101Z,22.80
2017-07-09T06:21:19.359Z,22.90
2017-07-09T06:23:46.583Z,22.90
2017-07-09T06:26:13.097Z,22.90
2017-07-09T06:28:39.574Z,23.00
2017-07-09T06:31:06.824Z,22.90
2017-07-09T06:33:34.039Z,22.90
2017-07-09T06:36:00.569Z,22.90
2017-07-09T06:38:27.053Z,22.90
2017-07-09T06:40:53.530Z,22.90
2017-07-09T06:43:20.052Z,22.80
2017-07-09T06:45:46.587Z,22.80
2017-07-09T06:48:13.246Z,22.70
2017-07-09T06:50:39.726Z,22.60
2017-07-09T06:53:06.239Z,22.50
2017-07-09T06:55:33.758Z,22.30
2017-07-09T06:58:00.222Z,22.30
2017-07-09T07:00:27.493Z,22.10
2017-07-09T07:02:54.053Z,22.10
2017-07-09T07:05:20.870Z,21.90
2017-07-09T07:07:47.392Z,21.80
2017-07-09T07:10:13.908Z,21.70
2017-07-09T07:12:40.537Z,21.50
2017-07-09T07:15:07.063Z,21.30
2017-07-09T07:17:33.736Z,21.20
2017-07-09T07:20:00.243Z,21.00
2017-07-09T07:22:27.468Z,20.70
2017-07-09T07:24:53.985Z,20.70
2017-07-09T07:27:20.464Z,20.60
2017-07-09T07:29:47.714Z,20.40
2017-07-09T07:32:15.147Z,20.30
2017-07-09T07:34:41.602Z,20.30
2017-07-09T07:37:08.828Z,20.20
2017-07-09T07:39:35.339Z,20.10
2017-07-09T07:42:01.855Z,20.10
2017-07-09T07:44:28.359Z,20.10
2017-07-09T07:46:55.594Z,20.00
2017-07-09T07:49:22.119Z,20.00
2017-07-09T07:51:48.600Z,20.00
2017-07-09T07:54:15.099Z,20.10
2017-07-09T07:56:42.384Z,20.10
2017-07-09T07:59:08.891Z,20.10
2017-07-09T08:01:36.155Z,20.20
2017-07-09T08:04:02.687Z,20.20
2017-07-09T08:06:29.169Z,20.30
2017-07-09T08:08:55.706Z,20.40
2017-07-09T08:11:22.183Z,20.50
2017-07-09T08:13:49.417Z,20.70
2017-07-09T08:16:16.922Z,20.80
2017-07-09T08:18:43.436Z,20.80
2017-07-09T08:21:09.921Z,21.00
2017-07-09T08:23:36.482Z,21.20
2017-07-09T08:26:03.747Z,21.60
2017-07-09T08:28:30.214Z,21.60
2017-07-09T08:30:56.743Z,21.80
2017-07-09T08:33:23.224Z,22.00
2017-07-09T08:35:50.523Z,22.40
2017-07-09T08:38:17.008Z,22.40
2017-07-09T08:40:44.227Z,22.40
2017-07-09T08:43:10.829Z,22.40
2017-07-09T08:45:37.290Z,22.30
2017-07-09T08:48:03.780Z,22.30
2017-07-09T08:50:30.293Z,22.20
2017-07-09T08:52:56.787Z,22.20
2017-07-09T08:55:23.290Z,22.20
2017-07-09T08:57:49.757Z,22.20
2017-07-09T09:00:16.273Z,22.20
2017-07-09T09:02:42.827Z,22.30
2017-07-09T09:05:09.560Z,22.40
2017-07-09T09:07:36.050Z,22.70
2017-07-09T09:10:02.560Z,23.00
2017-07-09T09:12:29.076Z,23.30
2017-07-09T09:14:55.533Z,23.40
2017-07-09T09:17:22.776Z,23.70
2017-07-09T09:19:49.997Z,24.10
2017-07-09T09:22:16.719Z,24.10
2017-07-09T09:24:43.230Z,24.40
2017-07-09T09:27:09.691Z,24.60
2017-07-09T09:29:36.185Z,24.60
2017-07-09T09:32:02.722Z,24.70
2017-07-09T09:34:29.191Z,25.00
2017-07-09T09:36:55.714Z,25.40
2017-07-09T09:39:22.199Z,25.40
2017-07-09T09:41:49.470Z,25.30
2017-07-09T09:44:16.003Z,25.30
2017-07-09T09:46:42.514Z,25.10
2017-07-09T09:49:09.747Z,24.80
2017-07-09T09:51:36.259Z,24.80
2017-07-09T09:54:02.765Z,24.80
2017-07-09T09:56:29.263Z,24.90
2017-07-09T09:58:56.515Z,25.10
2017-07-09T10:01:23.701Z,25.20
2017-07-09T10:03:50.441Z,25.20
2017-07-09T10:06:16.922Z,25.40
2017-07-09T10:08:44.155Z,25.70
2017-07-09T10:11:10.660Z,25.60
2017-07-09T10:13:37.113Z,25.80
2017-07-09T10:16:03.740Z,25.80
2017-07-09T10:18:30.234Z,25.70
2017-07-09T10:20:56.707Z,25.70
2017-07-09T10:23:23.197Z,25.70
2017-07-09T10:25:49.678Z,25.70
2017-07-09T10:28:16.198Z,25.70
2017-07-09T10:30:42.691Z,25.70
2017-07-09T10:33:09.171Z,25.70
2017-07-09T10:35:35.671Z,25.80
2017-07-09T10:38:02.141Z,25.70
2017-07-09T10:40:28.618Z,25.70
2017-07-09T10:42:55.151Z,25.70
2017-07-09T10:45:21.650Z,25.70
2017-07-09T10:47:48.275Z,25.80
2017-07-09T10:50:14.737Z,25.90
2017-07-09T10:52:41.965Z,26.00
2017-07-09T10:55:08.446Z,26.00
2017-07-09T10:57:34.933Z,26.00
2017-07-09T11:00:01.466Z,25.90
2017-07-09T11:02:27.940Z,25.90
2017-07-09T11:04:54.501Z,25.90
2017-07-09T11:07:21.000Z,25.80
2017-07-09T11:09:47.514Z,25.90
2017-07-09T11:12:14.206Z,26.00
2017-07-09T11:14:40.712Z,26.20
2017-07-09T11:17:07.212Z,26.30
2017-07-09T11:19:34.468Z,26.50
2017-07-09T11:22:01.704Z,26.50
2017-07-09T11:24:28.157Z,26.50
2017-07-09T11:26:55.431Z,26.40
2017-07-09T11:29:21.914Z,26.40
2017-07-09T11:31:48.435Z,26.50
2017-07-09T11:34:15.090Z,26.50
2017-07-09T11:36:41.549Z,26.50
2017-07-09T11:39:08.013Z,26.40
2017-07-09T11:41:34.680Z,26.30
2017-07-09T11:44:01.170Z,26.30
2017-07-09T11:46:27.641Z,26.30
2017-07-09T11:48:54.151Z,26.30
2017-07-09T11:51:20.722Z,26.30
2017-07-09T11:53:47.238Z,26.30
2017-07-09T11:56:13.685Z,26.30
2017-07-09T11:58:40.168Z,26.40
2017-07-09T12:01:06.695Z,26.40
2017-07-09T12:03:33.185Z,26.40
2017-07-09T12:05:59.678Z,26.50
2017-07-09T12:08:26.416Z,26.50
2017-07-09T12:10:52.923Z,26.50
2017-07-09T12:13:19.434Z,26.40
2017-07-09T12:15:45.907Z,26.40
2017-07-09T12:18:12.430Z,26.40
2017-07-09T12:20:38.932Z,26.30
2017-07-09T12:23:06.205Z,26.20
2017-07-09T12:25:32.721Z,26.20
2017-07-09T12:28:00.012Z,26.20
2017-07-09T12:30:26.544Z,26.10
2017-07-09T12:32:53.011Z,26.20
2017-07-09T12:35:19.489Z,26.20
2017-07-09T12:37:46.001Z,26.20
2017-07-09T12:40:13.198Z,26.20
2017-07-09T12:42:39.734Z,26.20
2017-07-09T12:45:06.224Z,26.30
2017-07-09T12:47:33.417Z,26.30
2017-07-09T12:49:59.894Z,26.30
2017-07-09T12:52:27.096Z,26.40
2017-07-09T12:54:53.629Z,26.40
2017-07-09T12:57:21.172Z,26.40
2017-07-09T12:59:47.633Z,26.50
2017-07-09T13:02:14.176Z,26.60
2017-07-09T13:04:40.655Z,26.70
2017-07-09T13:07:07.442Z,26.70
2017-07-09T13:09:33.941Z,26.80
2017-07-09T13:12:00.439Z,26.80
2017-07-09T13:14:27.959Z,26.80
2017-07-09T13:16:54.468Z,26.80
2017-07-09T13:19:20.937Z,26.90
2017-07-09T13:21:47.477Z,26.90
2017-07-09T13:24:13.959Z,26.90
2017-07-09T13:26:40.666Z,26.80
2017-07-09T13:29:07.159Z,26.90
2017-07-09T13:31:33.633Z,26.90
2017-07-09T13:34:00.889Z,26.90
2017-07-09T13:36:28.085Z,27.00
2017-07-09T13:38:54.583Z,26.90
2017-07-09T13:41:21.093Z,27.00
2017-07-09T13:43:48.345Z,27.10
2017-07-09T13:46:15.626Z,27.10
2017-07-09T13:48:42.146Z,27.10
2017-07-09T13:51:08.631Z,27.10
2017-07-09T13:53:35.171Z,27.10
2017-07-09T13:56:01.638Z,27.20
2017-07-09T13:58:28.829Z,27.40
2017-07-09T14:00:55.557Z,27.40
2017-07-09T14:03:22.054Z,27.40
2017-07-09T14:05:48.516Z,27.50
2017-07-09T14:08:15.054Z,27.60
2017-07-09T14:10:41.520Z,27.70
2017-07-09T14:13:08.191Z,27.70
2017-07-09T14:15:35.408Z,27.80
2017-07-09T14:18:01.901Z,27.80
2017-07-09T14:20:28.411Z,27.90
2017-07-09T14:22:54.912Z,27.80
2017-07-09T14:25:21.630Z,27.80
2017-07-09T14:27:48.130Z,27.80
2017-07-09T14:30:14.619Z,27.80
2017-07-09T14:32:41.116Z,27.80
2017-07-09T14:35:07.595Z,27.80
2017-07-09T14:37:34.845Z,27.90
2017-07-09T14:40:02.155Z,28.00
2017-07-09T14:42:28.636Z,27.90
2017-07-09T14:44:55.920Z,28.00
2017-07-09T14:47:22.416Z,28.00
2017-07-09T14:49:49.627Z,28.00
2017-07-09T14:52:16.167Z,28.00
2017-07-09T14:54:42.667Z,28.10
2017-07-09T14:57:09.429Z,28.20
2017-07-09T14:59:35.872Z,28.20
2017-07-09T15:02:02.362Z,28.20
2017-07-09T15:04:28.908Z,28.10
2017-07-09T15:06:55.455Z,28.10
2017-07-09T15:09:22.016Z,28.10
2017-07-09T15:11:48.553Z,28.10
2017-07-09T15:14:15.016Z,28.10
2017-07-09T15:16:42.211Z,28.00
2017-07-09T15:19:08.768Z,28.00
2017-07-09T15:21:35.299Z,28.00
2017-07-09T15:24:01.775Z,28.00
2017-07-09T15:26:28.538Z,27.90
2017-07-09T15:28:55.019Z,27.90
2017-07-09T15:31:22.249Z,27.80
2017-07-09T15:33:48.770Z,27.80
2017-07-09T15:36:15.255Z,27.80
2017-07-09T15:38:41.745Z,27.70
2017-07-09T15:41:08.231Z,27.60
2017-07-09T15:43:34.767Z,27.50
2017-07-09T15:46:01.234Z,27.50
2017-07-09T15:48:27.730Z,27.40
2017-07-09T15:50:54.411Z,27.30
2017-07-09T15:53:20.917Z,27.20
2017-07-09T15:55:47.407Z,27.10
2017-07-09T15:58:14.674Z,26.90
2017-07-09T16:00:41.180Z,26.90
2017-07-09T16:03:08.447Z,26.50
2017-07-09T16:05:35.660Z,26.30
2017-07-09T16:08:02.126Z,26.30
2017-07-09T16:10:29.417Z,25.90
2017-07-09T16:12:55.965Z,25.90
2017-07-09T16:15:22.697Z,25.70
2017-07-09T16:17:49.166Z,25.40
2017-07-09T16:20:16.374Z,24.90
2017-07-09T16:22:42.911Z,24.90
2017-07-09T16:25:09.394Z,24.60
2017-07-09T16:27:36.601Z,24.10
2017-07-09T16:30:03.182Z,24.10
2017-07-09T16:32:30.387Z,23.70
2017-07-09T16:34:57.132Z,23.60
2017-07-09T16:37:23.686Z,23.40
2017-07-09T16:39:50.173Z,23.20
2017-07-09T16:42:16.696Z,23.00
2017-07-09T16:44:43.164Z,22.90
2017-07-09T16:47:09.718Z,22.70
2017-07-09T16:49:36.239Z,22.60
2017-07-09T16:52:02.714Z,22.50
2017-07-09T16:54:29.373Z,22.40
2017-07-09T16:56:55.881Z,22.20
2017-07-09T16:59:22.337Z,22.20
2017-07-09T17:01:48.859Z,22.10
2017-07-09T17:04:15.330Z,22.10
2017-07-09T17:06:41.807Z,22.10
2017-07-09T17:09:08.591Z,22.00
2017-07-09T17:11:35.089Z,22.00
2017-07-09T17:14:01.617Z,22.00
2017-07-09T17:16:28.152Z,22.00
2017-07-09T17:18:54.700Z,22.00
2017-07-09T17:21:21.227Z,22.00
2017-07-09T17:23:47.729Z,22.00
2017-07-09T17:26:14.993Z,22.00
2017-07-09T17:28:42.233Z,22.10
2017-07-09T17:31:09.514Z,22.10
2017-07-09T17:33:36.011Z,22.10
2017-07-09T17:36:03.248Z,22.20
2017-07-09T17:38:29.815Z,22.20
2017-07-09T17:40:56.375Z,22.20
2017-07-09T17:43:22.844Z,22.20
2017-07-09T17:45:49.360Z,22.20
2017-07-09T17:48:15.849Z,22.20
2017-07-09T17:50:42.372Z,22.20
2017-07-09T17:53:09.763Z,22.10
2017-07-09T17:55:36.370Z,22.10
2017-07-09T17:58:02.904Z,22.10
2017-07-09T18:00:29.440Z,22.10
2017-07-09T18:02:55.939Z,22.00
2017-07-09T18:05:22.666Z,22.00
2017-07-09T18:07:49.246Z,22.00
2017-07-09T18:10:15.809Z,22.00
2017-07-09T18:12:42.359Z,21.90
2017-07-09T18:15:08.894Z,21.90
2017-07-09T18:17:35.420Z,22.00
2017-07-09T18:20:01.887Z,22.00
2017-07-09T18:22:29.140Z,21.90
2017-07-09T18:24:55.891Z,21.90
2017-07-09T18:27:22.457Z,21.90
2017-07-09T18:29:49.149Z,22.00
2017-07-09T18:32:16.299Z,21.90
2017-07-09T18:34:43.345Z,21.90
2017-07-09T18:37:10.278Z,22.00
2017-07-09T18:39:39.279Z,21.90
2017-07-09T18:42:07.963Z,21.90
2017-07-09T18:44:37.212Z,21.90
2017-07-09T18:47:06.234Z,21.90
2017-07-09T18:49:34.525Z,21.90
2017-07-09T18:52:03.016Z,21.80
2017-07-09T18:54:32.202Z,21.80
2017-07-09T18:57:01.297Z,21.80
2017-07-09T18:59:30.592Z,21.70
2017-07-09T19:01:59.413Z,21.70
2017-07-09T19:04:28.439Z,21.70
2017-07-09T19:06:57.541Z,21.60
2017-07-09T19:09:27.019Z,21.60
2017-07-09T19:11:55.829Z,21.50
2017-07-09T19:14:25.897Z,21.50
2017-07-09T19:16:54.820Z,21.40
2017-07-09T19:19:23.955Z,21.30
2017-07-09T19:21:53.103Z,21.30
2017-07-09T19:24:21.788Z,21.20
2017-07-09T19:26:50.838Z,21.20
2017-07-09T19:29:19.603Z,21.20
2017-07-09T19:31:48.361Z,21.20
2017-07-09T19:34:17.319Z,21.10
2017-07-09T19:36:47.018Z,21.00
2017-07-09T19:39:16.681Z,21.00
2017-07-09T19:41:45.757Z,21.00
2017-07-09T19:44:14.570Z,21.00
2017-07-09T19:46:43.437Z,21.00
2017-07-09T19:49:12.601Z,21.00
2017-07-09T19:51:41.695Z,21.00
2017-07-09T19:54:10.831Z,21.00
2017-07-09T19:56:39.990Z,20.90
2017-07-09T19:59:09.253Z,20.90
2017-07-09T20:01:38.093Z,20.90
2017-07-09T20:04:07.027Z,20.90
2017-07-09T20:06:36.053Z,20.90
2017-07-09T20:09:05.415Z,20.90
2017-07-09T20:11:34.542Z,20.80
2017-07-09T20:14:04.048Z,20.80
2017-07-09T20:16:33.735Z,20.80
2017-07-09T20:19:02.729Z,20.80
2017-07-09T20:21:32.322Z,20.80
2017-07-09T20:24:01.149Z,20.80
2017-07-09T20:26:30.701Z,20.80
2017-07-09T20:28:59.785Z,20.80
2017-07-09T20:31:28.780Z,20.70
2017-07-09T20:33:56.147Z,20.70
2017-07-09T20:36:22.935Z,20.70
2017-07-09T20:38:49.622Z,20.70
2017-07-09T20:41:16.843Z,20.70
2017-07-09T20:43:43.354Z,20.60
2017-07-09T20:46:10.054Z,20.60
2017-07-09T20:48:36.612Z,20.60
2017-07-09T20:51:03.148Z,20.60
2017-07-09T20:53:29.638Z,20.50
2017-07-09T20:55:56.106Z,20.50
2017-07-09T20:58:22.609Z,20.50
2017-07-09T21:00:49.826Z,20.50
2017-07-09T21:03:16.322Z,20.40
2017-07-09T21:05:42.804Z,20.40
2017-07-09T21:08:09.305Z,20.40
2017-07-09T21:10:35.842Z,20.30
2017-07-09T21:13:02.341Z,20.30
2017-07-09T21:15:28.878Z,20.30
2017-07-09T21:17:55.355Z,20.30
2017-07-09T21:20:21.869Z,20.20
2017-07-09T21:22:48.381Z,20.20
2017-07-09T21:25:14.853Z,20.20
2017-07-09T21:27:41.383Z,20.20
2017-07-09T21:30:07.873Z,20.10
2017-07-09T21:32:34.360Z,20.10
2017-07-09T21:35:00.879Z,20.00
2017-07-09T21:37:27.347Z,20.00
2017-07-09T21:39:54.613Z,20.00
2017-07-09T21:42:21.835Z,19.90
2017-07-09T21:44:48.385Z,19.90
2017-07-09T21:47:15.615Z,19.90
2017-07-09T21:49:42.111Z,19.80
2017-07-09T21:52:08.643Z,19.80
2017-07-09T21:54:35.114Z,19.80
2017-07-09T21:57:01.821Z,19.80
2017-07-09T21:59:28.287Z,19.80
2017-07-09T22:01:54.780Z,19.80
2017-07-09T22:04:21.293Z,19.70
2017-07-09T22:06:47.862Z,19.70
2017-07-09T22:09:14.603Z,19.70
2017-07-09T22:11:41.130Z,19.70
2017-07-09T22:14:07.622Z,19.70
2017-07-09T22:16:35.012Z,19.60
2017-07-09T22:19:01.485Z,19.60
2017-07-09T22:21:27.994Z,19.60
2017-07-09T22:23:54.489Z,19.60
2017-07-09T22:26:20.985Z,19.50
2017-07-09T22:28:47.532Z,19.50
2017-07-09T22:31:14.733Z,19.50
2017-07-09T22:33:41.448Z,19.50
2017-07-09T22:36:07.918Z,19.50
2017-07-09T22:38:34.389Z,19.50
2017-07-09T22:41:00.912Z,19.50
2017-07-09T22:43:28.130Z,19.50
2017-07-09T22:45:54.648Z,19.50
2017-07-09T22:48:21.114Z,19.50
2017-07-09T22:50:47.828Z,19.50
2017-07-09T22:53:14.306Z,19.50
2017-07-09T22:55:41.514Z,19.40
2017-07-09T22:58:08.103Z,19.40
2017-07-09T23:00:34.563Z,19.40
2017-07-09T23:03:01.099Z,19.40
2017-07-09T23:05:27.669Z,19.40
2017-07-09T23:07:54.139Z,19.40
2017-07-09T23:10:20.637Z,19.40
2017-07-09T23:12:47.150Z,19.40
2017-07-09T23:15:13.651Z,19.40
2017-07-09T23:17:40.298Z,19.40
2017-07-09T23:20:06.805Z,19.40
2017-07-09T23:22:33.260Z,19.40
2017-07-09T23:24:59.911Z,19.50
2017-07-09T23:27:26.385Z,19.50
2017-07-09T23:29:53.610Z,19.40
2017-07-09T23:32:20.335Z,19.40
2017-07-09T23:34:46.801Z,19.40
2017-07-09T23:37:13.279Z,19.50
2017-07-09T23:39:39.782Z,19.40
2017-07-09T23:42:07.030Z,19.40
2017-07-09T23:44:34.313Z,19.40
2017-07-09T23:47:00.769Z,19.40
2017-07-09T23:49:27.495Z,19.40
2017-07-09T23:51:53.987Z,19.40
2017-07-09T23:54:20.462Z,19.40
2017-07-09T23:56:46.983Z,19.40
2017-07-09T23:59:13.465Z,19.30
